createdAt,value
2024-01-22T00:00:15.093Z,98969.00
2024-01-22T00:02:42.075Z,98974.00
2024-01-22T00:05:11.567Z,98967.00
2024-01-22T00:07:38.269Z,98967.00
2024-01-22T00:10:06.096Z,98962.00
2024-01-22T00:12:32.914Z,98951.00
2024-01-22T00:14:59.471Z,98947.00
2024-01-22T00:17:25.996Z,98945.00
2024-01-22T00:19:52.648Z,98934.00
2024-01-22T00:22:19.178Z,98937.00
2024-01-22T00:24:45.782Z,98935.00
2024-01-22T00:27:12.303Z,98922.00
2024-01-22T00:29:38.942Z,98918.00
2024-01-22T00:32:06.283Z,98926.00
2024-01-22T00:34:32.891Z,98920.00
2024-01-22T00:37:00.602Z,98929.00
2024-01-22T00:39:27.141Z,98916.00
2024-01-22T00:41:53.747Z,98919.00
2024-01-22T00:44:20.273Z,98912.00
2024-01-22T00:46:46.776Z,98912.00
2024-01-22T00:49:13.764Z,98902.00
2024-01-22T00:51:40.420Z,98877.00
2024-01-22T00:54:07.022Z,98872.00
2024-01-22T00:56:34.497Z,98880.00
2024-01-22T00:59:01.136Z,98892.00
2024-01-22T01:01:30.879Z,98883.00
2024-01-22T01:03:57.746Z,98884.00
2024-01-22T01:06:24.475Z,98884.00
2024-01-22T01:08:51.111Z,98892.00
2024-01-22T01:11:17.665Z,98883.00
2024-01-22T01:13:44.186Z,98896.00
2024-01-22T01:16:11.210Z,98892.00
2024-01-22T01:18:37.958Z,98897.00
2024-01-22T01:21:04.636Z,98885.00
2024-01-22T01:23:31.168Z,98875.00
2024-01-22T01:25:57.666Z,98869.00
2024-01-22T01:28:24.224Z,98867.00
2024-01-22T01:30:50.799Z,98869.00
2024-01-22T01:33:17.442Z,98867.00
2024-01-22T01:35:46.128Z,98873.00
2024-01-22T01:38:13.013Z,98855.00
2024-01-22T01:40:42.858Z,98845.00
2024-01-22T01:43:09.880Z,98836.00
2024-01-22T01:45:36.433Z,98840.00
2024-01-22T01:48:03.749Z,98843.00
2024-01-22T01:50:30.466Z,98830.00
2024-01-22T01:52:57.410Z,98837.00
2024-01-22T01:55:24.532Z,98833.00
2024-01-22T01:57:57.305Z,98831.00
2024-01-22T02:00:27.450Z,98816.00
2024-01-22T02:02:54.360Z,98825.00
2024-01-22T02:05:21.391Z,98822.00
2024-01-22T02:07:48.498Z,98822.00
2024-01-22T02:10:15.316Z,98805.00
2024-01-22T02:12:42.018Z,98807.00
2024-01-22T02:15:09.569Z,98812.00
2024-01-22T02:17:36.395Z,98802.00
2024-01-22T02:20:04.075Z,98786.00
2024-01-22T02:22:30.634Z,98782.00
2024-01-22T02:24:57.599Z,98766.00
2024-01-22T02:27:25.110Z,98766.00
2024-01-22T02:29:51.694Z,98766.00
2024-01-22T02:32:18.450Z,98771.00
2024-01-22T02:34:45.456Z,98772.00
2024-01-22T02:37:12.155Z,98765.00
2024-01-22T02:39:39.793Z,98766.00
2024-01-22T02:42:06.430Z,98752.00
2024-01-22T02:44:35.861Z,98753.00
2024-01-22T02:47:03.457Z,98759.00
2024-01-22T02:49:30.134Z,98756.00
2024-01-22T02:51:56.739Z,98759.00
2024-01-22T02:54:23.258Z,98739.00
2024-01-22T02:56:49.870Z,98726.00
2024-01-22T02:59:18.370Z,98729.00
2024-01-22T03:01:45.110Z,98730.00
2024-01-22T03:04:11.848Z,98721.00
2024-01-22T03:06:39.951Z,98709.00
2024-01-22T03:09:06.856Z,98715.00
2024-01-22T03:11:33.453Z,98707.00
2024-01-22T03:13:59.961Z,98710.00
2024-01-22T03:16:26.582Z,98720.00
2024-01-22T03:18:54.380Z,98720.00
2024-01-22T03:21:21.052Z,98726.00
2024-01-22T03:23:47.573Z,98723.00
2024-01-22T03:26:23.983Z,98721.00
2024-01-22T03:28:53.736Z,98716.00
2024-01-22T03:31:24.836Z,98722.00
2024-01-22T03:33:52.730Z,98714.00
2024-01-22T03:36:20.015Z,98715.00
2024-01-22T03:38:47.131Z,98687.00
2024-01-22T03:41:13.847Z,98680.00
2024-01-22T03:43:44.261Z,98672.00
2024-01-22T03:46:12.193Z,98663.00
2024-01-22T03:48:39.165Z,98651.00
2024-01-22T03:51:06.311Z,98649.00
2024-01-22T03:53:33.298Z,98656.00
2024-01-22T03:56:03.983Z,98653.00
2024-01-22T03:58:30.914Z,98661.00
2024-01-22T04:00:57.731Z,98641.00
2024-01-22T04:03:24.553Z,98638.00
2024-01-22T04:05:51.525Z,98652.00
2024-01-22T04:08:18.084Z,98642.00
2024-01-22T04:10:44.712Z,98640.00
2024-01-22T04:13:11.204Z,98638.00
2024-01-22T04:15:37.749Z,98622.00
2024-01-22T04:18:04.849Z,98614.00
2024-01-22T04:20:31.473Z,98613.00
2024-01-22T04:22:57.967Z,98634.00
2024-01-22T04:25:24.470Z,98621.00
2024-01-22T04:27:51.093Z,98606.00
2024-01-22T04:30:17.641Z,98613.00
2024-01-22T04:32:44.354Z,98625.00
2024-01-22T04:35:11.496Z,98618.00
2024-01-22T04:37:38.005Z,98619.00
2024-01-22T04:40:12.649Z,98631.00
2024-01-22T04:42:41.380Z,98631.00
2024-01-22T04:45:08.437Z,98624.00
2024-01-22T04:47:35.642Z,98614.00
2024-01-22T04:50:02.586Z,98615.00
2024-01-22T04:52:30.245Z,98601.00
2024-01-22T04:55:05.272Z,98603.00
2024-01-22T04:57:39.676Z,98590.00
2024-01-22T05:00:06.922Z,98599.00
2024-01-22T05:02:34.308Z,98597.00
2024-01-22T05:05:02.757Z,98594.00
2024-01-22T05:07:29.413Z,98575.00
2024-01-22T05:10:05.662Z,98579.00
2024-01-22T05:12:32.463Z,98565.00
2024-01-22T05:14:59.103Z,98561.00
2024-01-22T05:17:27.765Z,98560.00
2024-01-22T05:19:54.533Z,98562.00
2024-01-22T05:22:21.365Z,98552.00
2024-01-22T05:24:48.251Z,98565.00
2024-01-22T05:27:15.170Z,98542.00
2024-01-22T05:29:41.914Z,98541.00
2024-01-22T05:32:08.569Z,98536.00
2024-01-22T05:34:35.141Z,98528.00
2024-01-22T05:37:01.853Z,98518.00
2024-01-22T05:39:28.510Z,98509.00
2024-01-22T05:41:55.938Z,98510.00
2024-01-22T05:44:22.884Z,98499.00
2024-01-22T05:46:49.823Z,98486.00
2024-01-22T05:49:16.848Z,98489.00
2024-01-22T05:51:43.414Z,98487.00
2024-01-22T05:54:11.019Z,98487.00
2024-01-22T05:56:37.624Z,98476.00
2024-01-22T05:59:04.770Z,98464.00
2024-01-22T06:01:31.442Z,98461.00
2024-01-22T06:03:58.605Z,98458.00
2024-01-22T06:06:25.909Z,98445.00
2024-01-22T06:08:52.708Z,98453.00
2024-01-22T06:11:20.597Z,98439.00
2024-01-22T06:13:56.936Z,98428.00
2024-01-22T06:16:28.087Z,98453.00
2024-01-22T06:18:54.796Z,98442.00
2024-01-22T06:21:21.581Z,98441.00
2024-01-22T06:23:49.070Z,98445.00
2024-01-22T06:26:17.111Z,98425.00
2024-01-22T06:28:43.891Z,98437.00
2024-01-22T06:31:10.692Z,98432.00
2024-01-22T06:33:37.385Z,98428.00
2024-01-22T06:36:04.164Z,98408.00
2024-01-22T06:38:30.779Z,98453.00
2024-01-22T06:40:57.995Z,98444.00
2024-01-22T06:43:24.723Z,98447.00
2024-01-22T06:45:51.258Z,98455.00
2024-01-22T06:48:18.006Z,98443.00
2024-01-22T06:50:44.737Z,98439.00
2024-01-22T06:53:11.325Z,98423.00
2024-01-22T06:55:37.831Z,98432.00
2024-01-22T06:58:04.564Z,98422.00
2024-01-22T07:00:34.124Z,98447.00
2024-01-22T07:03:00.992Z,98421.00
2024-01-22T07:05:27.977Z,98419.00
2024-01-22T07:07:55.260Z,98431.00
2024-01-22T07:10:22.317Z,98423.00
2024-01-22T07:12:48.967Z,98413.00
2024-01-22T07:15:15.615Z,98398.00
2024-01-22T07:17:42.826Z,98391.00
2024-01-22T07:20:14.977Z,98393.00
2024-01-22T07:22:45.200Z,98398.00
2024-01-22T07:25:13.900Z,98412.00
2024-01-22T07:27:40.897Z,98410.00
2024-01-22T07:30:10.170Z,98421.00
2024-01-22T07:32:37.881Z,98381.00
2024-01-22T07:35:11.232Z,98417.00
2024-01-22T07:37:39.120Z,98377.00
2024-01-22T07:40:07.219Z,98414.00
2024-01-22T07:42:34.902Z,98387.00
2024-01-22T07:45:02.461Z,98415.00
2024-01-22T07:47:29.186Z,98404.00
2024-01-22T07:49:56.126Z,98393.00
2024-01-22T07:52:23.430Z,98404.00
2024-01-22T07:54:53.579Z,98406.00
2024-01-22T07:57:20.166Z,98404.00
2024-01-22T07:59:47.714Z,98412.00
2024-01-22T08:02:14.487Z,98448.00
2024-01-22T08:04:41.066Z,98418.00
2024-01-22T08:07:07.936Z,98428.00
2024-01-22T08:09:35.322Z,98419.00
2024-01-22T08:12:01.893Z,98435.00
2024-01-22T08:14:28.545Z,98424.00
2024-01-22T08:16:55.193Z,98432.00
2024-01-22T08:19:21.966Z,98434.00
2024-01-22T08:21:49.845Z,98418.00
2024-01-22T08:24:16.396Z,98430.00
2024-01-22T08:26:43.278Z,98419.00
2024-01-22T08:29:09.866Z,98439.00
2024-01-22T08:31:36.483Z,98412.00
2024-01-22T08:34:05.502Z,98443.00
2024-01-22T08:36:32.482Z,98443.00
2024-01-22T08:38:59.159Z,98437.00
2024-01-22T08:41:28.905Z,98447.00
2024-01-22T08:44:01.993Z,98453.00
2024-01-22T08:46:28.841Z,98428.00
2024-01-22T08:48:56.674Z,98439.00
2024-01-22T08:51:23.350Z,98433.00
2024-01-22T08:53:50.669Z,98418.00
2024-01-22T08:56:17.256Z,98418.00
2024-01-22T08:58:43.788Z,98423.00
2024-01-22T09:01:10.450Z,98413.00
2024-01-22T09:03:38.246Z,98415.00
2024-01-22T09:06:07.905Z,98407.00
2024-01-22T09:08:35.350Z,98402.00
2024-01-22T09:11:03.106Z,98405.00
2024-01-22T09:13:29.710Z,98396.00
2024-01-22T09:15:58.384Z,98388.00
2024-01-22T09:18:25.597Z,98377.00
2024-01-22T09:20:53.744Z,98380.00
2024-01-22T09:23:20.374Z,98395.00
2024-01-22T09:25:47.004Z,98404.00
2024-01-22T09:28:15.473Z,98378.00
2024-01-22T09:30:42.673Z,98382.00
2024-01-22T09:33:11.173Z,98388.00
2024-01-22T09:35:42.305Z,98400.00
2024-01-22T09:38:09.213Z,98369.00
2024-01-22T09:40:36.028Z,98371.00
2024-01-22T09:43:05.368Z,98375.00
2024-01-22T09:45:33.696Z,98368.00
2024-01-22T09:48:03.773Z,98364.00
2024-01-22T09:50:31.112Z,98378.00
2024-01-22T09:53:13.589Z,98365.00
2024-01-22T09:55:42.055Z,98356.00
2024-01-22T09:58:10.542Z,98361.00
2024-01-22T10:00:39.143Z,98357.00
2024-01-22T10:03:06.899Z,98356.00
2024-01-22T10:05:33.568Z,98370.00
2024-01-22T10:08:00.221Z,98331.00
2024-01-22T10:10:27.061Z,98349.00
2024-01-22T10:13:05.530Z,98339.00
2024-01-22T10:15:35.322Z,98341.00
2024-01-22T10:18:28.228Z,98321.00
2024-01-22T10:20:58.114Z,98352.00
2024-01-22T10:23:24.692Z,98339.00
2024-01-22T10:25:51.200Z,98334.00
2024-01-22T10:28:19.446Z,98330.00
2024-01-22T10:30:47.675Z,98334.00
2024-01-22T10:33:16.528Z,98331.00
2024-01-22T10:35:44.330Z,98328.00
2024-01-22T10:38:13.620Z,98340.00
2024-01-22T10:40:40.896Z,98329.00
2024-01-22T10:43:20.403Z,98309.00
2024-01-22T10:45:51.734Z,98335.00
2024-01-22T10:48:30.869Z,98314.00
2024-01-22T10:51:06.418Z,98321.00
2024-01-22T10:53:33.638Z,98301.00
2024-01-22T10:56:03.740Z,98288.00
2024-01-22T10:58:45.350Z,98285.00
2024-01-22T11:01:17.610Z,98302.00
2024-01-22T11:03:53.423Z,98281.00
2024-01-22T11:06:24.161Z,98304.00
2024-01-22T11:08:52.797Z,98286.00
2024-01-22T11:11:21.035Z,98287.00
2024-01-22T11:13:56.928Z,98288.00
2024-01-22T11:16:24.058Z,98307.00
2024-01-22T11:19:21.342Z,98297.00
2024-01-22T11:21:47.963Z,98284.00
2024-01-22T11:24:19.548Z,98328.00
2024-01-22T11:26:52.902Z,98305.00
2024-01-22T11:29:27.693Z,98305.00
2024-01-22T11:31:55.699Z,98311.00
2024-01-22T11:34:46.357Z,98311.00
2024-01-22T11:37:33.352Z,98302.00
2024-01-22T11:40:00.222Z,98316.00
2024-01-22T11:42:29.464Z,98307.00
2024-01-22T11:44:57.478Z,98302.00
2024-01-22T11:47:24.926Z,98306.00
2024-01-22T11:50:01.475Z,98284.00
2024-01-22T11:52:30.676Z,98295.00
2024-01-22T11:55:02.606Z,98282.00
2024-01-22T11:57:32.886Z,98274.00
2024-01-22T12:00:06.810Z,98262.00
2024-01-22T12:02:40.409Z,98237.00
2024-01-22T12:05:20.942Z,98244.00
2024-01-22T12:07:49.770Z,98255.00
2024-01-22T12:10:29.932Z,98260.00
2024-01-22T12:13:04.631Z,98239.00
2024-01-22T12:15:33.765Z,98246.00
2024-01-22T12:18:02.677Z,98210.00
2024-01-22T12:20:31.364Z,98227.00
2024-01-22T12:23:02.787Z,98216.00
2024-01-22T12:25:39.257Z,98234.00
2024-01-22T12:28:09.181Z,98226.00
2024-01-22T12:30:35.990Z,98222.00
2024-01-22T12:33:03.188Z,98227.00
2024-01-22T12:35:30.032Z,98241.00
2024-01-22T12:37:56.902Z,98228.00
2024-01-22T12:40:24.637Z,98216.00
2024-01-22T12:42:59.050Z,98246.00
2024-01-22T12:45:26.275Z,98234.00
2024-01-22T12:47:53.552Z,98232.00
2024-01-22T12:50:20.160Z,98230.00
2024-01-22T12:52:47.664Z,98224.00
2024-01-22T12:55:15.903Z,98243.00
2024-01-22T12:57:44.279Z,98234.00
2024-01-22T13:00:13.704Z,98216.00
2024-01-22T13:02:40.992Z,98208.00
2024-01-22T13:05:08.145Z,98200.00
2024-01-22T13:07:35.039Z,98210.00
2024-01-22T13:10:01.654Z,98201.00
2024-01-22T13:12:28.428Z,98208.00
2024-01-22T13:14:56.240Z,98209.00
2024-01-22T13:17:23.215Z,98184.00
2024-01-22T13:19:50.258Z,98197.00
2024-01-22T13:22:17.116Z,98185.00
2024-01-22T13:24:43.801Z,98195.00
2024-01-22T13:27:10.517Z,98205.00
2024-01-22T13:29:37.287Z,98190.00
2024-01-22T13:32:04.392Z,98184.00
2024-01-22T13:34:31.023Z,98175.00
2024-01-22T13:36:57.617Z,98192.00
2024-01-22T13:39:24.293Z,98184.00
2024-01-22T13:41:50.965Z,98199.00
2024-01-22T13:44:18.444Z,98196.00
2024-01-22T13:46:45.437Z,98200.00
2024-01-22T13:49:12.526Z,98198.00
2024-01-22T13:51:39.321Z,98194.00
2024-01-22T13:54:07.919Z,98191.00
2024-01-22T13:56:39.763Z,98214.00
2024-01-22T13:59:07.846Z,98209.00
2024-01-22T14:01:34.815Z,98218.00
2024-01-22T14:04:01.469Z,98220.00
2024-01-22T14:06:29.038Z,98207.00
2024-01-22T14:08:56.675Z,98208.00
2024-01-22T14:11:23.476Z,98202.00
2024-01-22T14:13:50.208Z,98199.00
2024-01-22T14:16:18.161Z,98206.00
2024-01-22T14:18:45.889Z,98215.00
2024-01-22T14:21:14.242Z,98218.00
2024-01-22T14:23:40.840Z,98229.00
2024-01-22T14:26:08.749Z,98216.00
2024-01-22T14:28:35.549Z,98227.00
2024-01-22T14:31:03.238Z,98217.00
2024-01-22T14:33:30.545Z,98235.00
2024-01-22T14:35:57.659Z,98245.00
2024-01-22T14:38:31.343Z,98244.00
2024-01-22T14:41:01.129Z,98257.00
2024-01-22T14:43:31.718Z,98282.00
2024-01-22T14:45:58.380Z,98305.00
2024-01-22T14:48:26.816Z,98330.00
2024-01-22T14:50:53.922Z,98332.00
2024-01-22T14:53:21.588Z,98333.00
2024-01-22T14:55:48.305Z,98349.00
2024-01-22T14:58:14.865Z,98352.00
2024-01-22T15:00:41.461Z,98350.00
2024-01-22T15:03:08.321Z,98333.00
2024-01-22T15:05:35.071Z,98333.00
2024-01-22T15:08:01.773Z,98335.00
2024-01-22T15:10:28.590Z,98337.00
2024-01-22T15:12:55.185Z,98376.00
2024-01-22T15:15:22.082Z,98402.00
2024-01-22T15:17:49.032Z,98413.00
2024-01-22T15:20:15.964Z,98418.00
2024-01-22T15:22:42.709Z,98398.00
2024-01-22T15:25:10.249Z,98389.00
2024-01-22T15:27:36.791Z,98395.00
2024-01-22T15:30:06.720Z,98387.00
2024-01-22T15:32:34.635Z,98372.00
2024-01-22T15:35:03.431Z,98378.00
2024-01-22T15:37:32.743Z,98378.00
2024-01-22T15:39:59.552Z,98372.00
2024-01-22T15:42:26.860Z,98348.00
2024-01-22T15:44:53.668Z,98337.00
2024-01-22T15:47:20.326Z,98329.00
2024-01-22T15:49:47.015Z,98328.00
2024-01-22T15:52:15.385Z,98322.00
2024-01-22T15:54:42.167Z,98360.00
2024-01-22T15:57:10.555Z,98371.00
2024-01-22T15:59:40.045Z,98367.00
2024-01-22T16:02:07.082Z,98386.00
2024-01-22T16:04:35.151Z,98399.00
2024-01-22T16:07:10.356Z,98414.00
2024-01-22T16:09:42.922Z,98412.00
2024-01-22T16:12:11.317Z,98417.00
2024-01-22T16:14:37.946Z,98427.00
2024-01-22T16:17:05.629Z,98450.00
2024-01-22T16:19:34.830Z,98446.00
2024-01-22T16:22:01.486Z,98452.00
2024-01-22T16:24:28.137Z,98438.00
2024-01-22T16:26:54.985Z,98454.00
2024-01-22T16:29:21.627Z,98451.00
2024-01-22T16:31:48.181Z,98442.00
2024-01-22T16:34:16.121Z,98429.00
2024-01-22T16:36:44.465Z,98445.00
2024-01-22T16:39:11.158Z,98442.00
2024-01-22T16:41:38.219Z,98454.00
2024-01-22T16:44:07.302Z,98473.00
2024-01-22T16:46:34.699Z,98471.00
2024-01-22T16:49:01.888Z,98470.00
2024-01-22T16:51:28.502Z,98492.00
2024-01-22T16:53:55.097Z,98494.00
2024-01-22T16:56:21.647Z,98493.00
2024-01-22T16:58:48.195Z,98507.00
2024-01-22T17:01:16.300Z,98492.00
2024-01-22T17:03:44.187Z,98489.00
2024-01-22T17:06:10.820Z,98496.00
2024-01-22T17:08:40.800Z,98510.00
2024-01-22T17:11:09.083Z,98512.00
2024-01-22T17:13:38.094Z,98512.00
2024-01-22T17:16:06.517Z,98519.00
2024-01-22T17:18:33.547Z,98525.00
2024-01-22T17:21:00.203Z,98527.00
2024-01-22T17:23:26.915Z,98546.00
2024-01-22T17:25:54.276Z,98542.00
2024-01-22T17:28:20.973Z,98564.00
2024-01-22T17:30:47.722Z,98568.00
2024-01-22T17:33:16.451Z,98565.00
2024-01-22T17:35:46.804Z,98587.00
2024-01-22T17:38:14.013Z,98575.00
2024-01-22T17:40:41.124Z,98587.00
2024-01-22T17:43:09.482Z,98586.00
2024-01-22T17:45:36.237Z,98584.00
2024-01-22T17:48:03.747Z,98587.00
2024-01-22T17:50:30.424Z,98595.00
2024-01-22T17:52:56.987Z,98591.00
2024-01-22T17:55:23.765Z,98593.00
2024-01-22T17:57:51.332Z,98603.00
2024-01-22T18:00:18.329Z,98613.00
2024-01-22T18:02:45.398Z,98620.00
2024-01-22T18:05:13.108Z,98636.00
2024-01-22T18:07:39.756Z,98640.00
2024-01-22T18:10:06.660Z,98650.00
2024-01-22T18:12:33.285Z,98658.00
2024-01-22T18:14:59.967Z,98668.00
2024-01-22T18:17:28.202Z,98688.00
2024-01-22T18:19:54.916Z,98690.00
2024-01-22T18:22:21.607Z,98700.00
2024-01-22T18:24:48.427Z,98708.00
2024-01-22T18:27:15.376Z,98728.00
2024-01-22T18:29:41.988Z,98720.00
2024-01-22T18:32:08.544Z,98739.00
2024-01-22T18:34:36.242Z,98742.00
2024-01-22T18:37:04.364Z,98748.00
2024-01-22T18:39:31.014Z,98763.00
2024-01-22T18:41:57.645Z,98768.00
2024-01-22T18:44:24.304Z,98772.00
2024-01-22T18:46:50.862Z,98768.00
2024-01-22T18:49:17.620Z,98773.00
2024-01-22T18:51:45.633Z,98780.00
2024-01-22T18:54:14.490Z,98781.00
2024-01-22T18:56:43.630Z,98780.00
2024-01-22T18:59:10.194Z,98779.00
2024-01-22T19:01:36.717Z,98780.00
2024-01-22T19:04:03.477Z,98787.00
2024-01-22T19:06:30.249Z,98788.00
2024-01-22T19:08:56.844Z,98794.00
2024-01-22T19:11:23.388Z,98807.00
2024-01-22T19:13:50.799Z,98810.00
2024-01-22T19:16:17.624Z,98808.00
2024-01-22T19:18:45.195Z,98818.00
2024-01-22T19:21:18.319Z,98825.00
2024-01-22T19:23:45.350Z,98828.00
2024-01-22T19:26:12.021Z,98830.00
2024-01-22T19:28:38.521Z,98834.00
2024-01-22T19:31:05.611Z,98840.00
2024-01-22T19:33:32.221Z,98830.00
2024-01-22T19:35:58.917Z,98834.00
2024-01-22T19:38:25.505Z,98843.00
2024-01-22T19:40:52.490Z,98836.00
2024-01-22T19:43:22.001Z,98851.00
2024-01-22T19:45:48.560Z,98842.00
2024-01-22T19:48:15.172Z,98844.00
2024-01-22T19:50:42.027Z,98853.00
2024-01-22T19:53:08.567Z,98861.00
2024-01-22T19:55:35.106Z,98873.00
2024-01-22T19:58:01.896Z,98870.00
2024-01-22T20:00:28.614Z,98872.00
2024-01-22T20:02:55.472Z,98864.00
2024-01-22T20:05:22.713Z,98863.00
2024-01-22T20:07:53.681Z,98862.00
2024-01-22T20:10:25.741Z,98872.00
2024-01-22T20:12:53.060Z,98855.00
2024-01-22T20:15:20.529Z,98858.00
2024-01-22T20:17:47.246Z,98863.00
2024-01-22T20:20:15.517Z,98861.00
2024-01-22T20:22:42.201Z,98863.00
2024-01-22T20:25:12.434Z,98871.00
2024-01-22T20:27:40.476Z,98856.00
2024-01-22T20:30:08.685Z,98872.00
2024-01-22T20:32:35.270Z,98867.00
2024-01-22T20:35:01.974Z,98855.00
2024-01-22T20:37:28.822Z,98841.00
2024-01-22T20:39:55.435Z,98843.00
2024-01-22T20:42:24.704Z,98850.00
2024-01-22T20:44:51.658Z,98851.00
2024-01-22T20:47:18.220Z,98848.00
2024-01-22T20:49:44.851Z,98854.00
2024-01-22T20:52:11.507Z,98849.00
2024-01-22T20:54:38.776Z,98858.00
2024-01-22T20:57:05.457Z,98852.00
2024-01-22T20:59:33.371Z,98857.00
2024-01-22T21:02:00.294Z,98864.00
2024-01-22T21:04:27.301Z,98861.00
2024-01-22T21:06:54.452Z,98874.00
2024-01-22T21:09:21.859Z,98873.00
2024-01-22T21:11:49.132Z,98870.00
2024-01-22T21:14:16.950Z,98876.00
2024-01-22T21:16:44.141Z,98871.00
2024-01-22T21:19:13.299Z,98882.00
2024-01-22T21:21:41.996Z,98880.00
2024-01-22T21:24:09.283Z,98870.00
2024-01-22T21:26:36.156Z,98873.00
2024-01-22T21:29:06.465Z,98864.00
2024-01-22T21:31:35.079Z,98870.00
2024-01-22T21:34:01.943Z,98879.00
2024-01-22T21:36:28.661Z,98882.00
2024-01-22T21:38:55.270Z,98889.00
2024-01-22T21:41:21.852Z,98898.00
2024-01-22T21:43:49.094Z,98898.00
2024-01-22T21:46:15.746Z,98900.00
2024-01-22T21:48:43.675Z,98908.00
2024-01-22T21:51:11.706Z,98914.00
2024-01-22T21:53:42.388Z,98908.00
2024-01-22T21:56:11.009Z,98931.00
2024-01-22T21:58:37.668Z,98927.00
2024-01-22T22:01:05.243Z,98932.00
2024-01-22T22:03:34.766Z,98939.00
2024-01-22T22:06:01.775Z,98943.00
2024-01-22T22:08:28.718Z,98948.00
2024-01-22T22:10:55.566Z,98946.00
2024-01-22T22:13:22.148Z,98955.00
2024-01-22T22:15:49.231Z,98948.00
2024-01-22T22:18:16.155Z,98960.00
2024-01-22T22:20:42.792Z,98958.00
2024-01-22T22:23:09.495Z,98944.00
2024-01-22T22:25:36.079Z,98959.00
2024-01-22T22:28:02.920Z,98960.00
2024-01-22T22:30:29.652Z,98965.00
2024-01-22T22:32:58.607Z,98956.00
2024-01-22T22:35:25.996Z,98964.00
2024-01-22T22:37:52.799Z,98963.00
2024-01-22T22:40:19.429Z,98964.00
2024-01-22T22:42:46.031Z,98964.00
2024-01-22T22:45:12.694Z,98971.00
2024-01-22T22:47:39.540Z,98973.00
2024-01-22T22:50:08.658Z,98969.00
2024-01-22T22:52:35.419Z,98980.00
2024-01-22T22:55:02.076Z,98990.00
2024-01-22T22:57:29.335Z,98987.00
2024-01-22T22:59:56.153Z,98985.00
2024-01-22T23:02:23.202Z,98976.00
2024-01-22T23:04:49.933Z,98980.00
2024-01-22T23:07:16.633Z,98986.00
2024-01-22T23:09:43.264Z,98986.00
2024-01-22T23:12:09.956Z,98977.00
2024-01-22T23:14:36.851Z,98989.00
2024-01-22T23:17:03.420Z,99001.00
2024-01-22T23:19:29.948Z,98989.00
2024-01-22T23:21:56.455Z,98979.00
2024-01-22T23:24:23.045Z,99000.00
2024-01-22T23:26:49.793Z,98992.00
2024-01-22T23:29:16.412Z,98999.00
2024-01-22T23:31:48.076Z,99004.00
2024-01-22T23:34:18.050Z,99002.00
2024-01-22T23:36:44.820Z,99009.00
2024-01-22T23:39:11.360Z,99009.00
2024-01-22T23:41:37.892Z,98995.00
2024-01-22T23:44:04.386Z,98990.00
2024-01-22T23:46:30.947Z,98987.00
2024-01-22T23:48:57.547Z,98992.00
2024-01-22T23:51:24.175Z,98989.00
2024-01-22T23:53:50.722Z,98995.00
2024-01-22T23:56:17.320Z,98998.00
2024-01-22T23:58:45.575Z,99008.00
